Аэропорт: Петропавловск. Петропавловск

ICAO: UACP

METAR:
2019-11-21 01:30:00
UACP 210130Z 24003MPS 9999 -SN BKN030 M20/M23 Q1038 NOSIG RMK QFE765/1021
METAR:
Информация по данной станции не доступна